Time;durP1;ratioP1;P1;durP2;ratioP2;P2;SDS_P1;SDS_P2;PMS_P1;PMS_P2;Temp;Humidity;BMP_temperature;BMP_pressure;BME280_temperature;BME280_humidity;BME280_pressure;Samples;Min_cycle;Max_cycle;Signal;HPM_P1;HPM_P2
2021/06/22 00:00:34;;;;;;;11.13;4.50;;;;;;;15.06;43.41;101753.16;3538241;40;20049;-78
2021/06/22 00:03:03;;;;;;;13.30;5.47;;;;;;;14.98;45.45;101747.19;3540167;40;20096;-77
2021/06/22 00:05:36;;;;;;;18.70;5.75;;;;;;;14.97;45.31;101751.59;3563863;40;20049;-77
2021/06/22 00:08:03;;;;;;;15.43;6.15;;;;;;;14.96;45.76;101749.00;3553132;40;20052;-77
2021/06/22 00:10:31;;;;;;;15.52;5.45;;;;;;;14.89;46.29;101744.78;3566710;40;20057;-77
2021/06/22 00:13:02;;;;;;;13.85;5.70;;;;;;;14.91;45.28;101756.16;3566793;40;20151;-77
2021/06/22 00:15:30;;;;;;;12.05;5.05;;;;;;;14.87;46.43;101757.97;3560894;40;20422;-77
2021/06/22 00:18:03;;;;;;;15.65;6.68;;;;;;;14.84;45.83;101760.66;3539367;40;20053;-77
2021/06/22 00:20:32;;;;;;;11.60;4.32;;;;;;;14.77;45.95;101765.22;3559656;40;20050;-77
2021/06/22 00:23:02;;;;;;;13.25;5.72;;;;;;;14.76;45.91;101768.75;3569173;40;20901;-78
2021/06/22 00:25:31;;;;;;;16.35;6.13;;;;;;;14.76;45.77;101775.78;3571125;40;20586;-77
2021/06/22 00:27:59;;;;;;;15.38;5.68;;;;;;;14.65;47.35;101754.09;3565460;40;20097;-78
2021/06/22 00:30:26;;;;;;;11.02;4.45;;;;;;;14.62;47.19;101754.19;3571421;40;20062;-78
2021/06/22 00:32:53;;;;;;;14.18;5.60;;;;;;;14.61;47.37;101763.84;3570217;40;20323;-78
2021/06/22 00:35:22;;;;;;;12.52;5.30;;;;;;;14.64;46.86;101768.16;3556375;40;20101;-78
2021/06/22 00:37:50;;;;;;;13.60;5.72;;;;;;;14.60;47.60;101758.59;3552122;40;20037;-77
2021/06/22 00:40:43;;;;;;;;;;;;;;;14.60;43.17;101767.38;3555187;40;20059;-78
2021/06/22 00:43:11;;;;;;;14.10;6.18;;;;;;;14.56;47.73;101768.34;3552225;40;19940;-78
2021/06/22 00:45:39;;;;;;;14.98;6.38;;;;;;;14.55;47.86;101769.25;3556810;40;20065;-78
2021/06/22 00:48:08;;;;;;;12.95;5.22;;;;;;;14.50;47.28;101763.22;3553119;40;20057;-78
2021/06/22 00:50:36;;;;;;;13.27;6.28;;;;;;;14.49;48.17;101764.09;3563619;40;20069;-78
2021/06/22 00:53:07;;;;;;;14.63;6.43;;;;;;;14.50;48.69;101760.59;3559453;40;20471;-78
2021/06/22 00:55:34;;;;;;;16.70;6.25;;;;;;;14.45;48.65;101763.28;3557543;40;20057;-78
2021/06/22 00:58:26;;;;;;;16.60;6.32;;;;;;;14.40;47.99;101759.03;3564106;40;20053;-77
2021/06/22 01:00:55;;;;;;;16.90;6.95;;;;;;;14.38;48.76;101758.19;3561987;40;20144;-78
2021/06/22 01:03:26;;;;;;;14.02;6.10;;;;;;;14.37;47.06;101766.97;3571833;40;20061;-78
2021/06/22 01:06:09;;;;;;;13.45;5.75;;;;;;;14.40;46.60;101770.41;3550425;40;20355;-78
2021/06/22 01:08:40;;;;;;;14.75;6.00;;;;;;;14.36;48.36;101778.38;3560964;40;20053;-78
2021/06/22 01:11:08;;;;;;;13.23;5.38;;;;;;;14.35;48.58;101776.66;3546423;40;20057;-78
2021/06/22 01:13:37;;;;;;;12.25;4.80;;;;;;;14.28;48.18;101776.75;3556485;40;20081;-78
2021/06/22 01:16:04;;;;;;;12.32;5.03;;;;;;;14.24;48.48;101774.22;3547859;40;20392;-78
2021/06/22 01:18:35;;;;;;;13.05;5.47;;;;;;;14.14;47.88;101768.34;3557570;40;20879;-78
2021/06/22 01:21:22;;;;;;;15.57;6.63;;;;;;;14.13;48.06;101777.06;3551988;40;20052;-77
2021/06/22 01:24:09;;;;;;;13.70;6.13;;;;;;;14.13;47.36;101776.22;3532296;40;20038;-78
2021/06/22 01:26:44;;;;;;;13.68;5.63;;;;;;;14.05;48.39;101773.75;3533563;40;20104;-78
2021/06/22 01:29:11;;;;;;;12.32;5.35;;;;;;;13.98;48.99;101774.75;3531723;40;20577;-78
2021/06/22 01:31:38;;;;;;;12.57;4.87;;;;;;;13.96;48.72;101779.19;3576515;40;20093;-78
2021/06/22 01:34:09;;;;;;;10.43;4.18;;;;;;;13.92;48.16;101772.25;3560109;40;20054;-78
2021/06/22 01:36:44;;;;;;;14.07;5.82;;;;;;;13.88;48.84;101773.22;3557856;40;20865;-78
2021/06/22 01:39:14;;;;;;;15.05;5.90;;;;;;;13.85;49.49;101783.78;3545831;40;20085;-78
2021/06/22 01:41:43;;;;;;;13.27;5.43;;;;;;;13.80;49.67;101783.88;3568543;40;20053;-78
2021/06/22 01:44:12;;;;;;;14.45;5.65;;;;;;;13.75;49.60;101781.31;3549658;40;20484;-78
2021/06/22 01:46:39;;;;;;;16.00;5.88;;;;;;;13.62;49.82;101779.81;3570184;40;20430;-78
2021/06/22 01:49:06;;;;;;;13.67;6.00;;;;;;;13.54;50.44;101776.47;3559351;40;20057;-78
2021/06/22 01:51:39;;;;;;;11.82;4.72;;;;;;;13.50;50.21;101785.28;3538123;40;20076;-78
2021/06/22 01:54:09;;;;;;;14.88;5.45;;;;;;;13.39;50.48;101774.13;3539722;40;20060;-78
2021/06/22 01:56:41;;;;;;;15.23;5.70;;;;;;;13.30;51.58;101776.91;3566380;40;20428;-77
2021/06/22 01:59:08;;;;;;;14.23;6.07;;;;;;;13.27;51.16;101779.56;3543235;40;20073;-78
2021/06/22 02:02:00;;;;;;;13.70;6.43;;;;;;;13.20;52.00;101776.16;3529734;40;20457;-78
2021/06/22 02:04:39;;;;;;;14.63;5.90;;;;;;;13.15;51.67;101781.47;3547598;40;20053;-78
2021/06/22 02:07:11;;;;;;;15.50;5.18;;;;;;;13.13;51.98;101775.38;3559159;40;20057;-78
2021/06/22 02:10:04;;;;;;;13.20;5.03;;;;;;;13.13;51.13;101785.88;3557142;40;20053;-78
2021/06/22 02:13:06;;;;;;;12.65;5.22;;;;;;;13.12;52.58;101778.88;3567948;40;20067;-78
2021/06/22 02:15:36;;;;;;;14.23;5.60;;;;;;;13.09;52.43;101771.06;3557391;40;20103;-78
2021/06/22 02:18:15;;;;;;;13.75;5.97;;;;;;;13.11;51.02;101777.16;3562858;40;20076;-77
2021/06/22 02:20:48;;;;;;;15.40;5.35;;;;;;;13.16;52.05;101784.94;3544215;40;21409;-78
2021/06/22 02:23:19;;;;;;;16.30;6.65;;;;;;;13.13;52.99;101778.00;3540068;40;20069;-77
2021/06/22 02:25:50;;;;;;;13.25;6.00;;;;;;;13.14;53.17;101777.13;3566664;40;20512;-78
2021/06/22 02:28:21;;;;;;;15.35;6.07;;;;;;;13.18;52.95;101784.06;3550512;40;20045;-78
2021/06/22 02:30:52;;;;;;;14.38;5.93;;;;;;;13.16;53.38;101780.56;3549033;40;21905;-78
2021/06/22 02:33:26;;;;;;;12.70;5.28;;;;;;;13.20;51.97;101782.25;3556727;40;21060;-78
2021/06/22 02:35:56;;;;;;;13.48;6.47;;;;;;;13.16;53.42;101775.31;3540006;40;20058;-77
2021/06/22 02:38:34;;;;;;;12.40;5.75;;;;;;;13.18;52.77;101777.94;3548091;40;20061;-78
2021/06/22 02:41:03;;;;;;;13.40;5.65;;;;;;;13.17;52.68;101771.78;3554456;40;20053;-78
2021/06/22 02:43:43;;;;;;;18.42;6.05;;;;;;;13.20;51.28;101774.38;3545163;40;20111;-78
2021/06/22 02:46:11;;;;;;;11.95;5.13;;;;;;;13.20;52.71;101770.91;3556957;40;20044;-78
2021/06/22 02:48:41;;;;;;;12.02;4.72;;;;;;;13.19;52.26;101775.28;3521170;40;20060;-78
2021/06/22 02:51:10;;;;;;;11.57;4.75;;;;;;;13.14;52.92;101750.03;3556590;40;20082;-78
2021/06/22 02:53:50;;;;;;;12.63;5.22;;;;;;;13.20;51.69;101761.28;3530013;40;20054;-78
2021/06/22 02:56:20;;;;;;;11.77;5.00;;;;;;;13.19;51.48;101759.53;3543253;40;20057;-78
2021/06/22 02:58:56;;;;;;;15.55;6.07;;;;;;;13.21;52.32;101768.28;3533408;40;20393;-78
2021/06/22 03:01:24;;;;;;;18.55;6.00;;;;;;;13.15;52.83;101765.72;3557768;40;20152;-77
2021/06/22 03:03:51;;;;;;;17.20;6.20;;;;;;;13.09;53.34;101757.97;3566946;40;20049;-78
2021/06/22 03:06:24;;;;;;;12.55;5.30;;;;;;;13.11;52.47;101771.91;3567321;40;20493;-78
2021/06/22 03:08:54;;;;;;;12.23;4.38;;;;;;;13.05;51.84;101776.38;3537616;40;20055;-78
2021/06/22 03:11:30;;;;;;;14.77;5.68;;;;;;;13.00;53.03;101781.69;3557858;40;20076;-78
2021/06/22 03:13:58;;;;;;;15.27;6.40;;;;;;;12.96;53.14;101782.63;3545986;40;20065;-77
2021/06/22 03:16:49;;;;;;;15.48;5.60;;;;;;;12.85;53.21;101780.19;3556565;40;20100;-78
2021/06/22 03:19:17;;;;;;;13.93;5.05;;;;;;;12.75;52.70;101775.97;3562136;40;20140;-77
2021/06/22 03:21:50;;;;;;;13.65;6.03;;;;;;;12.63;53.74;101763.91;3564269;40;20041;-77
2021/06/22 03:24:19;;;;;;;14.50;6.43;;;;;;;12.51;53.43;101764.06;3550599;40;20080;-77
2021/06/22 03:26:48;;;;;;;13.90;5.63;;;;;;;12.58;53.93;101788.44;3566345;40;20061;-77
2021/06/22 03:29:16;;;;;;;14.07;6.53;;;;;;;12.48;53.33;101790.31;3574238;40;20075;-77
2021/06/22 03:31:51;;;;;;;16.27;5.50;;;;;;;12.41;54.13;101788.66;3544711;40;20060;-77
2021/06/22 03:34:25;;;;;;;12.65;5.55;;;;;;;12.34;52.48;101787.00;3544364;40;20060;-77
2021/06/22 03:36:53;;;;;;;17.65;6.18;;;;;;;12.25;54.21;101777.50;3545823;40;20111;-77
2021/06/22 03:39:24;;;;;;;20.17;6.85;;;;;;;12.16;53.48;101783.72;3567486;40;20061;-77
2021/06/22 03:41:54;;;;;;;15.60;6.15;;;;;;;12.12;53.74;101779.41;3546164;40;20045;-77
2021/06/22 03:44:22;;;;;;;19.13;6.28;;;;;;;12.06;54.77;101787.31;3553569;40;20045;-77
2021/06/22 03:47:20;;;;;;;13.00;5.07;;;;;;;11.99;53.39;101785.66;3570593;40;20414;-77
2021/06/22 03:49:50;;;;;;;13.52;6.22;;;;;;;11.91;54.59;101787.50;3533755;40;20073;-77
2021/06/22 03:52:18;;;;;;;14.13;5.85;;;;;;;11.81;55.07;101780.59;3544283;40;20057;-77
2021/06/22 03:54:46;;;;;;;14.20;5.15;;;;;;;11.77;54.54;101778.91;3552015;40;20060;-77
2021/06/22 03:57:16;;;;;;;15.23;6.72;;;;;;;11.74;55.20;101784.16;3552647;40;22649;-77
2021/06/22 04:00:09;;;;;;;15.38;6.03;;;;;;;11.62;54.85;101775.56;3551188;40;20046;-77
2021/06/22 04:02:58;;;;;;;13.83;5.77;;;;;;;11.61;54.67;101781.69;3537431;40;20047;-77
2021/06/22 04:05:28;;;;;;;16.02;5.88;;;;;;;11.51;55.50;101780.03;3549555;40;20281;-77
2021/06/22 04:08:03;;;;;;;16.30;7.00;;;;;;;11.45;55.74;101782.69;3541409;40;20155;-77
2021/06/22 04:10:33;;;;;;;12.90;5.38;;;;;;;11.44;55.85;101791.41;3548370;40;20088;-77
2021/06/22 04:13:01;;;;;;;16.40;6.22;;;;;;;11.36;56.10;101783.66;3534290;40;20366;-77
2021/06/22 04:15:28;;;;;;;14.47;5.80;;;;;;;11.32;55.56;101787.16;3566807;40;20473;-77
2021/06/22 04:18:01;;;;;;;16.77;6.40;;;;;;;11.32;55.06;101802.00;3563009;40;20064;-77
2021/06/22 04:20:28;;;;;;;16.52;5.97;;;;;;;11.27;55.87;101802.03;3532163;40;20033;-77
2021/06/22 04:22:56;;;;;;;15.48;6.20;;;;;;;11.20;56.67;101807.28;3538341;40;20534;-78
2021/06/22 04:25:24;;;;;;;16.00;6.17;;;;;;;11.15;56.69;101803.00;3550966;40;20489;-77
2021/06/22 04:27:55;;;;;;;12.80;5.35;;;;;;;11.15;56.37;101800.38;3564662;40;20087;-77
2021/06/22 04:30:23;;;;;;;15.38;6.47;;;;;;;11.10;55.86;101796.94;3571863;40;20041;-76
2021/06/22 04:32:51;;;;;;;23.42;6.25;;;;;;;11.07;56.02;101802.16;3535083;40;20045;-77
2021/06/22 04:35:45;;;;;;;17.50;6.05;;;;;;;11.09;53.38;101800.41;3558602;40;20069;-77
2021/06/22 04:38:12;;;;;;;15.23;6.50;;;;;;;11.04;56.86;101793.47;3570514;40;20106;-77
2021/06/22 04:40:39;;;;;;;15.70;6.70;;;;;;;11.07;56.73;101802.16;3573718;40;20044;-77
2021/06/22 04:43:07;;;;;;;14.15;5.55;;;;;;;11.07;57.13;101807.41;3543144;40;20419;-77
2021/06/22 04:45:35;;;;;;;;;;;;;;;11.08;51.58;101813.50;3553112;40;20062;-77
2021/06/22 04:48:04;;;;;;;14.43;6.10;;;;;;;11.04;56.18;101812.63;3555261;40;20023;-77
2021/06/22 04:50:33;;;;;;;12.98;5.53;;;;;;;11.02;56.80;101817.03;3531547;40;20414;-77
2021/06/22 04:53:03;;;;;;;14.15;5.82;;;;;;;11.02;56.74;101814.41;3548623;40;20214;-77
2021/06/22 04:55:29;;;;;;;18.02;7.18;;;;;;;10.96;57.38;101808.34;3562875;40;20061;-77
2021/06/22 04:57:59;;;;;;;16.02;6.22;;;;;;;10.99;57.47;101813.53;3559653;40;20094;-77
2021/06/22 05:00:27;;;;;;;13.27;5.85;;;;;;;10.97;57.73;101816.19;3560454;40;20420;-77
2021/06/22 05:02:54;;;;;;;14.60;6.63;;;;;;;10.94;57.68;101808.34;3570013;39;20186;-77
2021/06/22 05:05:22;;;;;;;14.25;6.47;;;;;;;10.93;57.67;101806.63;3538777;40;20041;-77
2021/06/22 05:08:14;;;;;;;;;;;;;;;11.03;52.22;101818.75;3550006;40;20065;-77
2021/06/22 05:10:43;;;;;;;12.52;5.07;;;;;;;11.04;57.20;101823.09;3546742;40;20321;-77
2021/06/22 05:13:11;;;;;;;12.88;5.78;;;;;;;11.05;57.46;101819.63;3553673;40;20060;-77
2021/06/22 05:15:39;;;;;;;;;;;;;;;11.13;52.21;101827.41;3566984;40;20052;-77
2021/06/22 05:18:05;;;;;;;;;;;;;;;11.15;51.65;101813.47;3560041;40;19934;-77
2021/06/22 05:20:32;;;;;;;15.10;5.90;;;;;;;11.17;57.68;101819.53;3565819;40;19961;-77
2021/06/22 05:23:01;;;;;;;14.07;5.57;;;;;;;11.17;57.24;101819.53;3564488;40;20050;-77
2021/06/22 05:25:29;;;;;;;16.92;6.30;;;;;;;11.22;58.36;101821.25;3544601;40;20467;-77
2021/06/22 05:27:58;;;;;;;15.20;5.47;;;;;;;11.25;57.90;101810.75;3547278;40;20089;-77
2021/06/22 05:30:28;;;;;;;14.50;5.50;;;;;;;11.28;57.73;101815.97;3553597;40;20081;-77
2021/06/22 05:32:55;;;;;;;12.80;5.53;;;;;;;11.34;58.65;101821.13;3563669;40;20084;-77
2021/06/22 05:35:23;;;;;;;13.50;5.97;;;;;;;11.37;58.42;101821.13;3573593;40;20059;-77
2021/06/22 05:37:51;;;;;;;13.18;5.32;;;;;;;11.39;58.67;101812.38;3554618;40;20053;-77
2021/06/22 05:40:22;;;;;;;13.45;5.35;;;;;;;11.54;58.28;101829.69;3562438;40;20056;-77
2021/06/22 05:42:57;;;;;;;15.32;5.78;;;;;;;11.60;57.27;101829.63;3572204;40;20093;-78
2021/06/22 05:45:24;;;;;;;13.75;5.57;;;;;;;11.58;58.89;101826.16;3551268;40;20990;-77
2021/06/22 05:47:52;;;;;;;14.77;6.80;;;;;;;11.72;59.18;101838.28;3562498;40;20330;-77
2021/06/22 05:50:25;;;;;;;14.38;6.00;;;;;;;11.81;57.90;101833.81;3551835;40;20393;-77
2021/06/22 05:52:54;;;;;;;12.15;5.70;;;;;;;11.80;58.63;101815.50;3534733;40;20050;-77
2021/06/22 05:55:21;;;;;;;15.15;6.15;;;;;;;11.91;59.30;101829.38;3568625;40;20068;-77
2021/06/22 05:57:51;;;;;;;16.00;6.72;;;;;;;12.04;58.70;101831.00;3543221;40;20860;-77
2021/06/22 06:00:24;;;;;;;17.13;6.30;;;;;;;12.13;57.66;101836.13;3553117;40;20053;-77
2021/06/22 06:02:52;;;;;;;15.85;7.28;;;;;;;12.24;59.11;101835.16;3539382;40;20078;-77
2021/06/22 06:05:24;;;;;;;15.07;6.22;;;;;;;12.31;58.62;101824.56;3576917;40;20053;-78
2021/06/22 06:07:54;;;;;;;16.15;6.63;;;;;;;12.39;58.74;101827.97;3548694;40;20557;-77
2021/06/22 06:10:46;;;;;;;15.85;5.85;;;;;;;12.56;55.66;101835.59;3552447;40;20049;-77
2021/06/22 06:13:15;;;;;;;11.43;5.15;;;;;;;12.65;57.46;101851.22;3546305;40;20082;-77
2021/06/22 06:15:41;;;;;;;13.25;5.82;;;;;;;12.73;58.26;101853.75;3530026;40;20065;-77
2021/06/22 06:18:10;;;;;;;12.77;5.50;;;;;;;12.79;57.68;101847.56;3563439;40;21965;-77
2021/06/22 06:20:36;;;;;;;;;;;;;;;12.98;53.62;101859.53;3532525;40;20062;-77
2021/06/22 06:23:03;;;;;;;14.83;5.33;;;;;;;13.01;57.60;101853.38;3567379;40;24641;-77
2021/06/22 06:25:39;;;;;;;16.13;6.72;;;;;;;13.15;56.56;101857.53;3556972;40;21038;-77
2021/06/22 06:28:20;;;;;;;14.82;6.15;;;;;;;13.22;57.10;101856.56;3545062;40;20045;-78
2021/06/22 06:30:46;;;;;;;13.55;6.28;;;;;;;13.28;57.84;101862.59;3532586;40;20140;-77
2021/06/22 06:33:14;;;;;;;13.07;6.45;;;;;;;13.30;57.46;101845.09;3560844;40;20057;-77
2021/06/22 06:35:42;;;;;;;12.73;6.00;;;;;;;13.45;57.38;101853.59;3554859;40;20123;-77
2021/06/22 06:38:08;;;;;;;16.88;6.30;;;;;;;13.45;57.69;101844.84;3556536;40;20092;-77
2021/06/22 06:40:36;;;;;;;12.77;5.28;;;;;;;13.58;56.62;101850.75;3562668;40;20074;-77
2021/06/22 06:43:10;;;;;;;16.17;6.55;;;;;;;13.71;56.09;101862.78;3564097;40;20535;-78
2021/06/22 06:45:39;;;;;;;16.00;6.63;;;;;;;13.75;56.98;101859.22;3570984;40;20045;-77
2021/06/22 06:48:06;;;;;;;12.77;5.07;;;;;;;13.83;56.12;101864.31;3568757;40;20053;-77
2021/06/22 06:50:36;;;;;;;13.32;6.60;;;;;;;13.91;56.25;101865.06;3575751;40;20056;-77
2021/06/22 06:53:03;;;;;;;12.18;5.30;;;;;;;13.95;56.18;101862.38;3568054;40;20783;-78
2021/06/22 06:55:40;;;;;;;14.98;6.85;;;;;;;13.97;56.13;101857.06;3561112;40;20061;-77
2021/06/22 06:58:10;;;;;;;13.20;5.35;;;;;;;14.12;55.59;101869.91;3562843;40;20054;-77
2021/06/22 07:01:04;;;;;;;16.08;6.43;;;;;;;14.23;53.88;101867.94;3566396;40;20061;-77
2021/06/22 07:03:30;;;;;;;18.58;6.93;;;;;;;14.19;56.29;101866.31;3567244;40;20752;-76
2021/06/22 07:06:00;;;;;;;17.83;5.82;;;;;;;14.33;55.48;101878.28;3565962;40;20312;-74
2021/06/22 07:08:27;;;;;;;15.35;6.18;;;;;;;14.33;55.54;101870.41;3560760;40;20119;-77
2021/06/22 07:10:55;;;;;;;13.85;6.28;;;;;;;14.44;55.46;101882.44;3564022;40;20127;-76
2021/06/22 07:13:23;;;;;;;17.40;6.75;;;;;;;14.45;55.20;101878.06;3562733;40;20710;-77
2021/06/22 07:15:50;;;;;;;10.63;4.07;;;;;;;14.50;54.52;101881.50;3566373;40;20085;-77
2021/06/22 07:18:17;;;;;;;15.15;6.57;;;;;;;14.49;55.81;101885.00;3569658;40;20121;-77
2021/06/22 07:20:45;;;;;;;11.80;5.80;;;;;;;14.55;54.61;101884.91;3566121;40;20064;-78
2021/06/22 07:23:39;;;;;;;13.70;6.22;;;;;;;14.69;53.11;101892.47;3565267;40;20528;-77
2021/06/22 07:26:06;;;;;;;12.77;6.47;;;;;;;14.66;55.37;101882.06;3558070;40;20201;-77
2021/06/22 07:28:34;;;;;;;14.97;6.30;;;;;;;14.74;55.14;101886.22;3565014;40;20059;-77
2021/06/22 07:31:05;;;;;;;12.43;5.63;;;;;;;14.82;53.81;101891.34;3563054;40;21897;-77
2021/06/22 07:33:32;;;;;;;14.30;7.03;;;;;;;14.84;53.60;101886.03;3561646;40;20457;-77
2021/06/22 07:36:00;;;;;;;14.50;6.47;;;;;;;14.85;54.21;101882.50;3564104;40;21301;-76
2021/06/22 07:38:33;;;;;;;13.93;5.88;;;;;;;14.94;53.93;101887.56;3563341;40;20061;-77
2021/06/22 07:41:00;;;;;;;13.45;6.10;;;;;;;14.93;53.87;101894.59;3555098;40;20061;-78
2021/06/22 07:43:27;;;;;;;13.05;5.55;;;;;;;14.97;53.80;101879.63;3561799;40;20049;-78
2021/06/22 07:45:55;;;;;;;16.15;6.57;;;;;;;15.07;54.48;101888.19;3566619;40;20057;-78
2021/06/22 07:48:22;;;;;;;17.38;7.65;;;;;;;15.12;54.07;101892.44;3558034;40;20041;-77
2021/06/22 07:50:48;;;;;;;14.85;7.05;;;;;;;15.12;53.87;101881.06;3567461;40;20567;-78
2021/06/22 07:53:15;;;;;;;14.52;6.65;;;;;;;15.19;53.88;101883.50;3567037;40;20089;-78
2021/06/22 07:55:43;;;;;;;12.88;6.05;;;;;;;15.25;54.09;101887.75;3572749;40;20108;-77
2021/06/22 07:58:15;;;;;;;15.68;6.72;;;;;;;15.35;53.30;101893.66;3549892;40;20072;-78
2021/06/22 08:00:49;;;;;;;16.83;6.43;;;;;;;15.42;53.03;101900.53;3568554;40;20085;-78
2021/06/22 08:03:20;;;;;;;14.13;5.97;;;;;;;15.43;52.42;101886.47;3576684;40;20695;-78
2021/06/22 08:05:52;;;;;;;15.05;6.20;;;;;;;15.50;52.26;101904.69;3561218;40;20425;-78
2021/06/22 08:08:27;;;;;;;16.25;6.45;;;;;;;15.50;52.30;101877.50;3563376;40;20085;-77
2021/06/22 08:10:56;;;;;;;15.63;7.18;;;;;;;15.56;53.42;101893.13;3560781;40;20142;-77
2021/06/22 08:13:26;;;;;;;14.27;6.43;;;;;;;15.59;52.98;101882.53;3562170;40;20798;-77
2021/06/22 08:15:56;;;;;;;13.45;5.22;;;;;;;15.63;53.05;101888.59;3560315;40;25986;-78
2021/06/22 08:18:25;;;;;;;11.95;5.82;;;;;;;15.65;52.90;101885.06;3559051;40;20072;-77
2021/06/22 08:20:52;;;;;;;10.55;4.68;;;;;;;15.70;52.32;101891.06;3565818;40;20084;-77
2021/06/22 08:23:21;;;;;;;17.85;7.05;;;;;;;15.80;52.57;101887.31;3565873;40;20551;-78
2021/06/22 08:25:55;;;;;;;13.20;6.13;;;;;;;15.89;52.36;101890.63;3553177;40;20073;-77
2021/06/22 08:28:24;;;;;;;12.27;4.97;;;;;;;15.89;51.74;101890.63;3563389;40;20046;-77
2021/06/22 08:30:50;;;;;;;12.77;5.53;;;;;;;15.96;51.55;101892.19;3564484;40;20049;-78
2021/06/22 08:33:23;;;;;;;14.57;7.15;;;;;;;16.04;51.28;101890.22;3566398;40;20083;-78
2021/06/22 08:35:52;;;;;;;14.48;6.22;;;;;;;16.09;51.85;101885.69;3556802;40;20106;-78
2021/06/22 08:38:19;;;;;;;12.68;6.78;;;;;;;16.12;51.74;101888.25;3565270;40;20104;-78
2021/06/22 08:40:47;;;;;;;12.93;6.03;;;;;;;16.22;51.69;101900.28;3567644;40;20105;-78
2021/06/22 08:43:16;;;;;;;12.85;6.03;;;;;;;16.24;51.88;101882.63;3557394;40;21276;-78
2021/06/22 08:45:54;;;;;;;14.05;5.82;;;;;;;16.40;51.28;101898.88;3553789;40;20046;-77
2021/06/22 08:48:28;;;;;;;10.90;5.55;;;;;;;16.46;50.73;101888.16;3559664;40;20056;-78
2021/06/22 08:50:57;;;;;;;11.32;5.50;;;;;;;16.52;50.21;101887.13;3561493;40;20057;-78
2021/06/22 08:53:24;;;;;;;12.90;6.25;;;;;;;16.58;50.10;101890.47;3555253;40;20072;-77
2021/06/22 08:55:50;;;;;;;11.63;5.88;;;;;;;16.59;50.20;101873.75;3557458;40;20405;-78
2021/06/22 08:58:20;;;;;;;12.38;6.10;;;;;;;16.79;48.03;101886.38;3559589;40;20493;-78
2021/06/22 09:00:54;;;;;;;16.45;6.80;;;;;;;16.89;48.13;101886.09;3562680;40;20059;-77
2021/06/22 09:03:24;;;;;;;15.52;5.97;;;;;;;16.94;47.07;101884.19;3548937;40;20078;-78
2021/06/22 09:05:54;;;;;;;13.23;6.38;;;;;;;17.00;46.76;101889.28;3572113;40;20488;-78
2021/06/22 09:08:29;;;;;;;13.52;5.95;;;;;;;17.09;47.76;101889.00;3556979;40;20061;-78
2021/06/22 09:11:11;;;;;;;11.70;6.05;;;;;;;17.21;47.17;101893.88;3560023;40;20139;-78
2021/06/22 09:13:41;;;;;;;10.85;4.95;;;;;;;17.25;47.84;101886.75;3552342;40;20393;-78
2021/06/22 09:16:10;;;;;;;12.55;5.97;;;;;;;17.26;47.29;101880.53;3565648;40;20065;-77
2021/06/22 09:18:42;;;;;;;12.73;6.20;;;;;;;17.47;46.91;101902.75;3571522;40;20053;-78
2021/06/22 09:21:14;;;;;;;10.20;5.55;;;;;;;17.55;46.66;101892.81;3564175;40;20411;-78
2021/06/22 09:23:43;;;;;;;13.18;5.90;;;;;;;17.63;47.22;101901.34;3556345;40;20060;-78
2021/06/22 09:26:31;;;;;;;10.88;5.85;;;;;;;17.78;46.32;101900.88;3568631;40;20049;-78
2021/06/22 09:29:09;;;;;;;12.00;5.70;;;;;;;17.89;46.48;101896.09;3559937;40;20402;-78
2021/06/22 09:31:36;;;;;;;11.63;5.80;;;;;;;18.00;44.57;101894.88;3562101;40;20066;-78
2021/06/22 09:34:12;;;;;;;11.45;5.30;;;;;;;18.26;44.12;101897.47;3568348;40;20049;-78
2021/06/22 09:36:39;;;;;;;11.88;5.32;;;;;;;18.47;43.52;101894.94;3557007;40;20057;-78
2021/06/22 09:39:08;;;;;;;13.50;6.15;;;;;;;18.80;42.72;101893.72;3569429;40;20095;-78
2021/06/22 09:41:34;;;;;;;12.05;5.55;;;;;;;19.21;41.94;101893.03;3568152;40;20061;-78
2021/06/22 09:44:07;;;;;;;11.30;5.60;;;;;;;19.58;41.56;101887.13;3564547;40;20763;-77
2021/06/22 09:46:38;;;;;;;11.27;4.70;;;;;;;20.05;39.34;101893.06;3547168;40;20433;-78
2021/06/22 09:49:08;;;;;;;10.45;5.18;;;;;;;20.45;38.48;101900.13;3564527;40;20126;-78
2021/06/22 09:51:58;;;;;;;9.38;5.00;;;;;;;20.96;39.30;101898.72;3573126;40;20052;-78
2021/06/22 09:54:48;;;;;;;8.60;4.70;;;;;;;21.32;36.96;101900.56;3566060;40;20061;-78
2021/06/22 09:57:19;;;;;;;9.00;4.90;;;;;;;21.87;36.65;101895.16;3562744;40;20491;-78
2021/06/22 10:00:07;;;;;;;9.85;5.40;;;;;;;22.34;37.80;101897.16;3558393;40;20076;-79
2021/06/22 10:02:55;;;;;;;9.73;5.75;;;;;;;22.78;37.59;101901.91;3557965;40;20049;-78
2021/06/22 10:05:24;;;;;;;9.45;4.80;;;;;;;23.04;33.88;101897.84;3562904;40;20069;-79
2021/06/22 10:08:01;;;;;;;7.90;4.43;;;;;;;23.48;35.24;101908.66;3551481;40;20063;-79
2021/06/22 10:10:41;;;;;;;9.32;5.07;;;;;;;23.88;35.26;101894.81;3551792;40;20057;-79
2021/06/22 10:13:08;;;;;;;9.15;5.43;;;;;;;24.08;31.43;101892.66;3565260;40;20062;-79
2021/06/22 10:15:36;;;;;;;10.10;5.95;;;;;;;24.50;31.89;101901.69;3564308;40;20053;-79
2021/06/22 10:18:03;;;;;;;10.00;5.63;;;;;;;24.82;29.78;101893.44;3564905;40;20115;-79
2021/06/22 10:20:30;;;;;;;9.13;5.10;;;;;;;25.14;28.35;101893.22;3565193;40;20201;-79
2021/06/22 10:22:57;;;;;;;9.65;4.80;;;;;;;25.57;30.59;101902.81;3547491;40;20085;-79
2021/06/22 10:25:26;;;;;;;8.93;5.07;;;;;;;25.90;29.52;101896.16;3562115;40;20053;-79
2021/06/22 10:27:55;;;;;;;10.60;5.13;;;;;;;26.31;26.98;101890.63;3558460;40;20053;-79
2021/06/22 10:30:22;;;;;;;14.40;6.18;;;;;;;26.73;27.60;101885.03;3563115;40;20131;-79
2021/06/22 10:32:49;;;;;;;9.95;5.22;;;;;;;27.14;28.13;101893.63;3556049;40;20049;-79
2021/06/22 10:35:16;;;;;;;8.50;5.43;;;;;;;27.56;27.56;101886.00;3548682;40;20112;-79
2021/06/22 10:38:07;;;;;;;9.88;5.65;;;;;;;28.25;29.32;101890.63;3562744;40;20394;-79
2021/06/22 10:40:35;;;;;;;13.25;6.82;;;;;;;28.53;25.21;101890.16;3564652;40;20322;-80
2021/06/22 10:43:05;;;;;;;10.18;5.70;;;;;;;28.94;25.67;101894.94;3555718;40;20447;-79
2021/06/22 10:46:05;;;;;;;10.77;6.18;;;;;;;29.53;26.99;101884.69;3563412;40;20056;-80
2021/06/22 10:48:44;;;;;;;10.68;6.18;;;;;;;29.87;25.69;101872.81;3557098;40;20454;-79
2021/06/22 10:51:35;;;;;;;10.50;6.20;;;;;;;30.27;26.76;101876.59;3559205;40;20492;-80
2021/06/22 10:54:02;;;;;;;10.85;6.45;;;;;;;30.36;22.37;101881.16;3570781;40;20063;-80
2021/06/22 10:56:32;;;;;;;13.18;6.72;;;;;;;30.61;24.38;101880.69;3561992;40;20061;-80
2021/06/22 10:59:14;;;;;;;9.93;5.75;;;;;;;31.01;25.17;101891.47;3563094;40;20270;-80
2021/06/22 11:01:51;;;;;;;9.25;5.78;;;;;;;31.26;24.30;101890.13;3554208;40;20435;-80
2021/06/22 11:04:22;;;;;;;9.75;5.95;;;;;;;31.46;22.39;101887.44;3557498;40;20102;-80
2021/06/22 11:07:01;;;;;;;11.27;6.03;;;;;;;31.78;24.29;101874.50;3570651;40;20350;-80
2021/06/22 11:09:28;;;;;;;9.18;5.72;;;;;;;31.98;21.40;101879.88;3561756;40;20138;-80
2021/06/22 11:12:23;;;;;;;10.25;5.78;;;;;;;32.46;23.87;101889.72;3554226;40;20084;-80
2021/06/22 11:15:00;;;;;;;10.63;5.70;;;;;;;32.69;23.07;101885.59;3560353;40;20067;-81
2021/06/22 11:17:42;;;;;;;;;;;;;;;33.16;25.30;101882.78;3539113;40;20457;-81
2021/06/22 11:20:15;;;;;;;9.85;5.50;;;;;;;33.39;20.42;101887.72;3558202;40;20011;-80
2021/06/22 11:23:13;;;;;;;9.23;4.93;;;;;;;34.07;23.79;101885.28;3544444;40;20065;-80
2021/06/22 11:26:02;;;;;;;8.88;5.55;;;;;;;34.42;21.15;101881.56;3554655;40;20154;-80
2021/06/22 11:28:53;;;;;;;10.38;5.10;;;;;;;34.93;22.00;101884.31;3561610;40;20064;-80
2021/06/22 11:31:52;;;;;;;11.35;5.75;;;;;;;35.37;21.45;101887.63;3559931;40;20725;-80
2021/06/22 11:34:21;;;;;;;10.30;5.53;;;;;;;35.67;18.48;101877.97;3559647;40;20057;-80
2021/06/22 11:36:54;;;;;;;9.23;5.80;;;;;;;36.09;19.31;101875.06;3556531;40;20053;-80
2021/06/22 11:39:25;;;;;;;10.05;5.80;;;;;;;36.42;18.01;101883.16;3556603;40;20817;-80
2021/06/22 11:42:06;;;;;;;9.68;5.95;;;;;;;36.84;19.58;101871.88;3541783;40;20069;-80